createdAt,value
2019-04-30T00:00:34.737Z,0.00
2019-04-30T00:01:33.026Z,0.00
2019-04-30T00:02:35.912Z,0.00
2019-04-30T00:03:35.107Z,0.00
2019-04-30T00:04:37.133Z,0.00
2019-04-30T00:05:35.145Z,0.00
2019-04-30T00:06:37.650Z,0.00
2019-04-30T00:07:33.363Z,0.00
2019-04-30T00:08:35.571Z,0.00
2019-04-30T00:09:35.160Z,0.00
2019-04-30T00:10:39.631Z,0.00
2019-04-30T00:11:33.586Z,0.00
2019-04-30T00:12:35.936Z,0.00
2019-04-30T00:13:35.721Z,0.00
2019-04-30T00:14:39.932Z,0.00
2019-04-30T00:15:35.612Z,0.00
2019-04-30T00:16:36.210Z,0.00
2019-04-30T00:17:35.880Z,0.00
2019-04-30T00:18:37.930Z,0.00
2019-04-30T00:19:35.844Z,0.00
2019-04-30T00:20:37.016Z,0.00
2019-04-30T00:21:36.012Z,0.00
2019-04-30T00:22:38.500Z,0.00
2019-04-30T00:23:35.897Z,0.00
2019-04-30T00:24:35.471Z,0.00
2019-04-30T00:25:35.157Z,0.00
2019-04-30T00:26:35.408Z,0.00
2019-04-30T00:27:35.595Z,0.00
2019-04-30T00:28:35.363Z,0.00
2019-04-30T00:29:35.634Z,0.00
2019-04-30T00:30:35.041Z,0.00
2019-04-30T00:31:35.005Z,0.00
2019-04-30T00:32:39.052Z,0.00
2019-04-30T00:33:35.342Z,0.00
2019-04-30T00:34:35.869Z,0.00
2019-04-30T00:35:35.551Z,0.00
2019-04-30T00:36:37.427Z,0.00
2019-04-30T00:37:35.302Z,0.00
2019-04-30T00:38:37.826Z,0.00
2019-04-30T00:39:35.532Z,0.00
2019-04-30T00:40:35.307Z,0.00
2019-04-30T00:41:35.447Z,0.00
2019-04-30T00:42:35.746Z,0.00
2019-04-30T00:43:37.594Z,0.00
2019-04-30T00:44:35.732Z,0.00
2019-04-30T00:45:35.516Z,0.00
2019-04-30T00:46:36.462Z,0.00
2019-04-30T00:47:39.566Z,0.00
2019-04-30T00:48:35.779Z,0.00
2019-04-30T00:49:35.726Z,0.00
2019-04-30T00:50:37.174Z,0.00
2019-04-30T00:51:35.839Z,0.00
2019-04-30T00:52:37.350Z,0.00
2019-04-30T00:53:35.995Z,0.00
2019-04-30T00:54:36.010Z,0.00
2019-04-30T00:55:40.215Z,0.00
2019-04-30T00:56:36.121Z,0.00
2019-04-30T00:57:37.324Z,0.00
2019-04-30T00:58:36.234Z,0.00
2019-04-30T00:59:39.766Z,0.00
2019-04-30T01:00:37.157Z,0.00
2019-04-30T01:01:37.412Z,0.00
2019-04-30T01:02:36.461Z,0.00
2019-04-30T01:03:39.455Z,0.00
2019-04-30T01:04:36.574Z,0.00
2019-04-30T01:05:39.552Z,0.00
2019-04-30T01:06:36.687Z,0.00
2019-04-30T01:07:39.657Z,0.00
2019-04-30T01:08:36.797Z,0.00
2019-04-30T01:09:39.643Z,0.00
2019-04-30T01:10:36.911Z,0.00
2019-04-30T01:11:39.764Z,0.00
2019-04-30T01:12:43.864Z,0.00
2019-04-30T01:13:38.923Z,0.00
2019-04-30T01:14:38.605Z,0.00
2019-04-30T01:15:38.952Z,0.00
2019-04-30T01:16:39.394Z,0.00
2019-04-30T01:17:38.246Z,0.00
2019-04-30T01:18:38.987Z,0.00
2019-04-30T01:19:39.515Z,0.00
2019-04-30T01:20:38.663Z,0.00
2019-04-30T01:21:40.170Z,0.00
2019-04-30T01:22:38.886Z,0.00
2019-04-30T01:23:41.794Z,0.00
2019-04-30T01:24:38.696Z,0.00
2019-04-30T01:25:38.856Z,0.00
2019-04-30T01:26:39.345Z,0.00
2019-04-30T01:27:39.495Z,0.00
2019-04-30T01:28:38.594Z,0.00
2019-04-30T01:29:43.903Z,0.00
2019-04-30T01:30:39.363Z,0.00
2019-04-30T01:31:40.807Z,0.00
2019-04-30T01:32:39.495Z,0.00
2019-04-30T01:33:39.031Z,0.00
2019-04-30T01:34:39.532Z,0.00
2019-04-30T01:35:40.528Z,0.00
2019-04-30T01:36:39.278Z,0.00
2019-04-30T01:37:38.743Z,0.00
2019-04-30T01:38:40.254Z,0.00
2019-04-30T01:39:39.153Z,0.00
2019-04-30T01:40:38.606Z,0.00
2019-04-30T01:41:40.185Z,0.00
2019-04-30T01:42:41.164Z,0.00
2019-04-30T01:43:38.776Z,0.00
2019-04-30T01:44:39.261Z,0.00
2019-04-30T01:45:38.889Z,0.00
2019-04-30T01:46:39.099Z,0.00
2019-04-30T01:47:39.691Z,0.00
2019-04-30T01:48:39.380Z,0.00
2019-04-30T01:49:42.759Z,0.00
2019-04-30T01:50:42.066Z,0.00
2019-04-30T01:51:39.246Z,0.00
2019-04-30T01:52:41.153Z,0.00
2019-04-30T01:53:43.582Z,0.00
2019-04-30T01:54:39.401Z,0.00
2019-04-30T01:55:41.493Z,0.00
2019-04-30T01:56:39.509Z,0.00
2019-04-30T01:57:39.567Z,0.00
2019-04-30T01:58:39.624Z,0.00
2019-04-30T01:59:39.682Z,0.00
2019-04-30T02:00:39.736Z,0.00
2019-04-30T02:01:39.792Z,0.00
2019-04-30T02:02:39.849Z,0.00
2019-04-30T02:03:40.120Z,0.00
2019-04-30T02:04:39.961Z,0.00
2019-04-30T02:05:40.019Z,0.00
2019-04-30T02:06:40.074Z,0.00
2019-04-30T02:07:40.381Z,0.00
2019-04-30T02:08:40.187Z,0.00
2019-04-30T02:09:40.244Z,0.00
2019-04-30T02:10:40.453Z,0.00
2019-04-30T02:11:40.359Z,0.00
2019-04-30T02:12:40.416Z,0.00
2019-04-30T02:13:40.473Z,0.00
2019-04-30T02:14:40.527Z,0.00
2019-04-30T02:15:40.584Z,0.00
2019-04-30T02:16:40.640Z,0.00
2019-04-30T02:17:40.696Z,0.00
2019-04-30T02:18:40.752Z,0.00
2019-04-30T02:19:40.809Z,0.00
2019-04-30T02:20:40.865Z,0.00
2019-04-30T02:21:40.921Z,0.00
2019-04-30T02:22:40.980Z,0.00
2019-04-30T02:23:41.034Z,0.00
2019-04-30T02:24:41.090Z,0.00
2019-04-30T02:25:41.148Z,0.00
2019-04-30T02:26:41.202Z,0.00
2019-04-30T02:27:41.260Z,0.00
2019-04-30T02:28:41.316Z,0.00
2019-04-30T02:29:41.372Z,0.00
2019-04-30T02:30:41.430Z,0.00
2019-04-30T02:31:41.486Z,0.00
2019-04-30T02:32:41.542Z,0.00
2019-04-30T02:33:41.605Z,0.00
2019-04-30T02:34:44.216Z,0.00
2019-04-30T02:35:41.712Z,0.00
2019-04-30T02:36:41.767Z,0.00
2019-04-30T02:37:43.537Z,0.00
2019-04-30T02:38:41.881Z,0.00
2019-04-30T02:39:41.941Z,0.00
2019-04-30T02:40:42.545Z,0.00
2019-04-30T02:41:42.053Z,0.00
2019-04-30T02:42:42.105Z,0.00
2019-04-30T02:43:42.160Z,0.00
2019-04-30T02:44:42.216Z,0.00
2019-04-30T02:45:42.343Z,0.00
2019-04-30T02:46:42.328Z,0.00
2019-04-30T02:47:42.386Z,0.00
2019-04-30T02:48:42.442Z,0.00
2019-04-30T02:49:42.496Z,0.00
2019-04-30T02:50:42.559Z,0.00
2019-04-30T02:51:42.612Z,0.00
2019-04-30T02:52:42.666Z,0.00
2019-04-30T02:53:42.723Z,0.00
2019-04-30T02:54:42.780Z,0.00
2019-04-30T02:55:42.836Z,0.00
2019-04-30T02:56:42.890Z,0.00
2019-04-30T02:57:42.951Z,0.00
2019-04-30T02:58:43.005Z,0.00
2019-04-30T02:59:43.061Z,0.00
2019-04-30T03:00:43.119Z,0.00
2019-04-30T03:01:43.192Z,0.00
2019-04-30T03:02:43.228Z,0.00
2019-04-30T03:03:43.286Z,0.00
2019-04-30T03:04:43.341Z,0.00
2019-04-30T03:05:43.397Z,0.00
2019-04-30T03:06:43.460Z,0.00
2019-04-30T03:07:43.516Z,0.00
2019-04-30T03:08:43.565Z,0.00
2019-04-30T03:09:43.624Z,0.00
2019-04-30T03:10:43.679Z,0.00
2019-04-30T03:11:43.734Z,0.00
2019-04-30T03:12:43.792Z,0.00
2019-04-30T03:13:43.846Z,0.00
2019-04-30T03:14:43.903Z,0.00
2019-04-30T03:15:43.959Z,0.00
2019-04-30T03:16:44.021Z,0.00
2019-04-30T03:17:44.071Z,0.00
2019-04-30T03:18:44.127Z,0.00
2019-04-30T03:19:44.187Z,0.00
2019-04-30T03:20:44.239Z,0.00
2019-04-30T03:21:44.298Z,0.00
2019-04-30T03:22:44.354Z,0.00
2019-04-30T03:23:44.407Z,0.00
2019-04-30T03:24:44.466Z,0.00
2019-04-30T03:25:44.524Z,0.00
2019-04-30T03:26:44.577Z,0.00
2019-04-30T03:27:44.633Z,0.00
2019-04-30T03:28:44.689Z,0.00
2019-04-30T03:29:44.746Z,0.00
2019-04-30T03:30:44.803Z,0.00
2019-04-30T03:31:45.754Z,0.00
2019-04-30T03:32:50.484Z,0.00
2019-04-30T03:33:44.975Z,0.00
2019-04-30T03:34:45.031Z,0.00
2019-04-30T03:35:47.716Z,0.00
2019-04-30T03:36:45.139Z,0.00
2019-04-30T03:37:45.196Z,0.00
2019-04-30T03:38:45.255Z,0.00
2019-04-30T03:39:45.342Z,0.00
2019-04-30T03:40:45.363Z,0.00
2019-04-30T03:41:45.420Z,4.00
2019-04-30T03:42:45.482Z,4.00
2019-04-30T03:43:45.546Z,0.00
2019-04-30T03:44:45.598Z,4.00
2019-04-30T03:45:45.648Z,4.00
2019-04-30T03:46:45.703Z,4.00
2019-04-30T03:47:45.758Z,4.00
2019-04-30T03:48:45.814Z,8.00
2019-04-30T03:49:45.872Z,4.00
2019-04-30T03:50:53.429Z,8.00
2019-04-30T03:51:45.984Z,8.00
2019-04-30T03:52:46.038Z,12.00
2019-04-30T03:53:46.096Z,12.00
2019-04-30T03:54:46.152Z,20.00
2019-04-30T03:55:46.208Z,24.00
2019-04-30T03:56:46.266Z,28.00
2019-04-30T03:57:46.319Z,32.00
2019-04-30T03:58:46.377Z,36.00
2019-04-30T03:59:46.439Z,44.00
2019-04-30T04:00:46.781Z,48.00
2019-04-30T04:01:46.559Z,56.00
2019-04-30T04:02:46.601Z,64.00
2019-04-30T04:03:46.658Z,72.00
2019-04-30T04:04:49.435Z,80.00
2019-04-30T04:05:46.772Z,92.00
2019-04-30T04:06:49.051Z,104.00
2019-04-30T04:07:52.523Z,112.00
2019-04-30T04:08:48.909Z,124.00
2019-04-30T04:09:49.696Z,128.00
2019-04-30T04:10:47.052Z,144.00
2019-04-30T04:11:47.108Z,156.00
2019-04-30T04:12:49.600Z,172.00
2019-04-30T04:13:49.416Z,180.00
2019-04-30T04:14:47.281Z,188.00
2019-04-30T04:15:49.837Z,200.00
2019-04-30T04:16:50.408Z,212.00
2019-04-30T04:17:50.189Z,232.00
2019-04-30T04:18:49.801Z,256.00
2019-04-30T04:19:49.428Z,284.00
2019-04-30T04:20:51.986Z,312.00
2019-04-30T04:21:50.717Z,344.00
2019-04-30T04:22:49.673Z,376.00
2019-04-30T04:23:49.281Z,404.00
2019-04-30T04:24:50.076Z,428.00
2019-04-30T04:25:49.875Z,440.00
2019-04-30T04:26:50.183Z,448.00
2019-04-30T04:27:50.545Z,464.00
2019-04-30T04:28:49.684Z,484.00
2019-04-30T04:29:50.967Z,508.00
2019-04-30T04:30:50.588Z,540.00
2019-04-30T04:31:50.091Z,580.00
2019-04-30T04:32:50.078Z,636.00
2019-04-30T04:33:49.634Z,676.00
2019-04-30T04:34:50.421Z,696.00
2019-04-30T04:35:49.779Z,736.00
2019-04-30T04:36:50.469Z,808.00
2019-04-30T04:37:49.533Z,876.00
2019-04-30T04:38:50.639Z,928.00
2019-04-30T04:39:50.001Z,940.00
2019-04-30T04:40:50.171Z,964.00
2019-04-30T04:41:50.375Z,992.00
2019-04-30T04:42:49.448Z,992.00
2019-04-30T04:43:50.341Z,1004.00
2019-04-30T04:44:50.262Z,1044.00
2019-04-30T04:45:49.852Z,1112.00
2019-04-30T04:46:50.362Z,1188.00
2019-04-30T04:47:50.358Z,1272.00
2019-04-30T04:48:49.568Z,1368.00
2019-04-30T04:49:53.189Z,1476.00
2019-04-30T04:50:50.203Z,1536.00
2019-04-30T04:51:49.429Z,1560.00
2019-04-30T04:52:49.763Z,1584.00
2019-04-30T04:53:50.047Z,1584.00
2019-04-30T04:54:50.585Z,1596.00
2019-04-30T04:55:50.050Z,1588.00
2019-04-30T04:56:50.431Z,1624.00
2019-04-30T04:57:50.179Z,1732.00
2019-04-30T04:58:50.307Z,1872.00
2019-04-30T04:59:50.242Z,1980.00
2019-04-30T05:00:49.863Z,2100.00
2019-04-30T05:01:49.919Z,2220.00
2019-04-30T05:02:49.999Z,2232.00
2019-04-30T05:03:50.031Z,2228.00
2019-04-30T05:04:50.092Z,2296.00
2019-04-30T05:05:50.158Z,2444.00
2019-04-30T05:06:50.201Z,2540.00
2019-04-30T05:07:50.256Z,2556.00
2019-04-30T05:08:50.318Z,2632.00
2019-04-30T05:09:50.369Z,2712.00
2019-04-30T05:10:50.433Z,2784.00
2019-04-30T05:11:50.483Z,2796.00
2019-04-30T05:12:51.036Z,2744.00
2019-04-30T05:13:50.595Z,2752.00
2019-04-30T05:14:50.654Z,2812.00
2019-04-30T05:15:51.545Z,2912.00
2019-04-30T05:16:50.764Z,3000.00
2019-04-30T05:17:50.820Z,3116.00
2019-04-30T05:18:50.877Z,3220.00
2019-04-30T05:19:50.940Z,3304.00
2019-04-30T05:20:51.112Z,3432.00
2019-04-30T05:21:51.749Z,3524.00
2019-04-30T05:22:51.140Z,3472.00
2019-04-30T05:23:51.178Z,3464.00
2019-04-30T05:24:51.215Z,3536.00
2019-04-30T05:25:51.294Z,3708.00
2019-04-30T05:26:51.358Z,3884.00
2019-04-30T05:27:51.486Z,4056.00
2019-04-30T05:28:52.956Z,4116.00
2019-04-30T05:29:51.498Z,4100.00
2019-04-30T05:30:51.556Z,4060.00
2019-04-30T05:31:51.657Z,4012.00
2019-04-30T05:32:51.716Z,4072.00
2019-04-30T05:33:51.725Z,4248.00
2019-04-30T05:34:51.784Z,4432.00
2019-04-30T05:35:51.843Z,4492.00
2019-04-30T05:36:51.895Z,4332.00
2019-04-30T05:37:51.970Z,4248.00
2019-04-30T05:38:52.012Z,4300.00
2019-04-30T05:39:52.092Z,4404.00
2019-04-30T05:40:52.155Z,4440.00
2019-04-30T05:41:52.260Z,4620.00
2019-04-30T05:42:52.605Z,4924.00
2019-04-30T05:43:52.297Z,4908.00
2019-04-30T05:44:52.370Z,4720.00
2019-04-30T05:45:52.408Z,4616.00
2019-04-30T05:46:52.521Z,4776.00
2019-04-30T05:47:52.522Z,5120.00
2019-04-30T05:48:52.577Z,5480.00
2019-04-30T05:49:52.636Z,5680.00
2019-04-30T05:50:53.014Z,5688.00
2019-04-30T05:51:55.655Z,5684.00
2019-04-30T05:52:52.841Z,5796.00
2019-04-30T05:53:52.871Z,5752.00
2019-04-30T05:54:52.961Z,5668.00
2019-04-30T05:55:53.013Z,5676.00
2019-04-30T05:56:53.071Z,5800.00
2019-04-30T05:57:56.376Z,6008.00
2019-04-30T05:58:53.167Z,5560.00
2019-04-30T05:59:53.237Z,4920.00
2019-04-30T06:00:53.284Z,4684.00
2019-04-30T06:01:53.354Z,4828.00
2019-04-30T06:02:53.422Z,5148.00
2019-04-30T06:03:53.448Z,5440.00
2019-04-30T06:04:53.724Z,5540.00
2019-04-30T06:05:54.818Z,5260.00
2019-04-30T06:06:53.885Z,4932.00
2019-04-30T06:07:55.448Z,4952.00
2019-04-30T06:09:03.984Z,4984.00
2019-04-30T06:09:54.125Z,4844.00
2019-04-30T06:10:53.846Z,4640.00
2019-04-30T06:11:53.951Z,4316.00
2019-04-30T06:12:54.324Z,4208.00
2019-04-30T06:13:54.380Z,4136.00
2019-04-30T06:14:54.101Z,4128.00
2019-04-30T06:15:54.517Z,4168.00
2019-04-30T06:16:54.545Z,4192.00
2019-04-30T06:18:00.938Z,4244.00
2019-04-30T06:18:54.327Z,4376.00
2019-04-30T06:19:54.361Z,4552.00
2019-04-30T06:20:54.405Z,4828.00
2019-04-30T06:22:04.928Z,5268.00
2019-04-30T06:22:54.871Z,5628.00
2019-04-30T06:23:54.580Z,5940.00
2019-04-30T06:24:54.635Z,6408.00
2019-04-30T06:25:59.414Z,6936.00
2019-04-30T06:26:54.749Z,7556.00
2019-04-30T06:27:54.888Z,8472.00
2019-04-30T06:28:54.864Z,9216.00
2019-04-30T06:29:54.927Z,9288.00
2019-04-30T06:30:54.980Z,8988.00
2019-04-30T06:31:55.038Z,9016.00
2019-04-30T06:32:55.094Z,8756.00
2019-04-30T06:33:55.152Z,8448.00
2019-04-30T06:34:55.692Z,8020.00
2019-04-30T06:35:55.268Z,7476.00
2019-04-30T06:36:56.901Z,6668.00
2019-04-30T06:37:55.382Z,6160.00
2019-04-30T06:38:55.546Z,6168.00
2019-04-30T06:39:55.596Z,6072.00
2019-04-30T06:40:55.606Z,6284.00
2019-04-30T06:42:05.007Z,6336.00
2019-04-30T06:42:55.727Z,6208.00
2019-04-30T06:43:55.836Z,6136.00
2019-04-30T06:44:55.825Z,6028.00
2019-04-30T06:45:55.855Z,6072.00
2019-04-30T06:46:56.561Z,6340.00
2019-04-30T06:47:55.963Z,6564.00
2019-04-30T06:48:56.020Z,6564.00
2019-04-30T06:49:56.078Z,6480.00
2019-04-30T06:50:56.136Z,6688.00
2019-04-30T06:51:56.195Z,7132.00
2019-04-30T06:52:58.995Z,7652.00
2019-04-30T06:53:56.310Z,8024.00
2019-04-30T06:54:56.368Z,8408.00
2019-04-30T06:55:56.426Z,8796.00
2019-04-30T06:56:56.483Z,9380.00
2019-04-30T06:58:09.639Z,9532.00
2019-04-30T06:58:56.600Z,9352.00
2019-04-30T06:59:56.659Z,9420.00
2019-04-30T07:00:56.716Z,9296.00
2019-04-30T07:01:58.931Z,9276.00
2019-04-30T07:02:56.832Z,8756.00
2019-04-30T07:03:59.219Z,8640.00
2019-04-30T07:04:58.711Z,8852.00
2019-04-30T07:05:58.608Z,8856.00
2019-04-30T07:06:58.907Z,8360.00
2019-04-30T07:08:02.599Z,7788.00
2019-04-30T07:08:59.485Z,7500.00
2019-04-30T07:10:00.907Z,7904.00
2019-04-30T07:11:00.068Z,8948.00
2019-04-30T07:11:59.216Z,10056.00
2019-04-30T07:12:58.979Z,10480.00
2019-04-30T07:13:59.840Z,10192.00
2019-04-30T07:14:59.192Z,9988.00
2019-04-30T07:15:58.523Z,10164.00
2019-04-30T07:16:59.409Z,10592.00
2019-04-30T07:17:59.119Z,11168.00
2019-04-30T07:18:58.639Z,11768.00
2019-04-30T07:19:59.668Z,12068.00
2019-04-30T07:20:58.742Z,11188.00
2019-04-30T07:21:59.419Z,10584.00
2019-04-30T07:23:59.703Z,10296.00
2019-04-30T07:24:59.599Z,10632.00
2019-04-30T07:25:59.049Z,10840.00
2019-04-30T07:27:01.024Z,11036.00
2019-04-30T07:27:59.785Z,11596.00
2019-04-30T07:28:59.810Z,12148.00
2019-04-30T07:29:59.604Z,12088.00
2019-04-30T07:31:10.197Z,12064.00
2019-04-30T07:31:59.212Z,11748.00
2019-04-30T07:32:59.692Z,11496.00
2019-04-30T07:33:59.450Z,11460.00
2019-04-30T07:34:59.478Z,12584.00
2019-04-30T07:36:01.554Z,13588.00
2019-04-30T07:37:13.278Z,13408.00
2019-04-30T07:38:00.629Z,12968.00
2019-04-30T07:38:59.991Z,12372.00
2019-04-30T07:39:59.111Z,12620.00
2019-04-30T07:40:59.204Z,12388.00
2019-04-30T07:41:59.970Z,11656.00
2019-04-30T07:42:59.297Z,11012.00
2019-04-30T07:43:59.431Z,10260.00
2019-04-30T07:45:00.680Z,10452.00
2019-04-30T07:45:59.808Z,10344.00
2019-04-30T07:47:01.884Z,10544.00
2019-04-30T07:47:59.531Z,10760.00
2019-04-30T07:49:00.091Z,10900.00
2019-04-30T07:50:00.720Z,10476.00
2019-04-30T07:50:59.660Z,9780.00
2019-04-30T07:52:01.379Z,8956.00
2019-04-30T07:53:05.503Z,9800.00
2019-04-30T07:53:59.808Z,11100.00
2019-04-30T07:55:00.632Z,11220.00
2019-04-30T07:55:59.927Z,10772.00
2019-04-30T07:57:00.589Z,9572.00
2019-04-30T07:58:00.042Z,10112.00
2019-04-30T07:59:00.777Z,10132.00
2019-04-30T08:00:00.675Z,9580.00
2019-04-30T08:01:00.217Z,8752.00
2019-04-30T08:02:10.189Z,7668.00
2019-04-30T08:03:00.336Z,7096.00
2019-04-30T08:04:00.394Z,6188.00
2019-04-30T08:05:00.452Z,6440.00
2019-04-30T08:06:00.543Z,6956.00
2019-04-30T08:07:00.638Z,6788.00
2019-04-30T08:08:16.775Z,6152.00
2019-04-30T08:09:01.150Z,6556.00
2019-04-30T08:09:34.154Z,10420.00
2019-04-30T08:10:00.744Z,7376.00
2019-04-30T08:11:00.803Z,7648.00
2019-04-30T08:12:00.993Z,6652.00
2019-04-30T08:13:09.693Z,6436.00
2019-04-30T08:14:01.838Z,5868.00
2019-04-30T08:15:01.038Z,6388.00
2019-04-30T08:16:01.095Z,6312.00
2019-04-30T08:17:01.152Z,6072.00
2019-04-30T08:18:05.549Z,6296.00
2019-04-30T08:19:01.270Z,5796.00
2019-04-30T08:20:01.335Z,6016.00
2019-04-30T08:21:01.385Z,5704.00
2019-04-30T08:22:01.764Z,5868.00
2019-04-30T08:23:13.378Z,5984.00
2019-04-30T08:24:01.868Z,5672.00
2019-04-30T08:25:01.638Z,5708.00
2019-04-30T08:26:01.694Z,5896.00
2019-04-30T08:27:01.738Z,5876.00
2019-04-30T08:28:01.840Z,5728.00
2019-04-30T08:29:01.857Z,5716.00
2019-04-30T08:30:01.911Z,5712.00
2019-04-30T08:31:02.396Z,5720.00
2019-04-30T08:32:02.066Z,5836.00
2019-04-30T08:33:02.126Z,5920.00
2019-04-30T08:34:02.141Z,5952.00
2019-04-30T08:35:10.087Z,5968.00
2019-04-30T08:36:02.257Z,5968.00
2019-04-30T08:37:12.928Z,5960.00
2019-04-30T08:38:02.374Z,5976.00
2019-04-30T08:39:02.433Z,6036.00
2019-04-30T08:40:03.570Z,6112.00
2019-04-30T08:41:02.549Z,6092.00
2019-04-30T08:42:02.605Z,6108.00
2019-04-30T08:43:02.664Z,6128.00
2019-04-30T08:44:02.726Z,6160.00
2019-04-30T08:45:02.782Z,6292.00
2019-04-30T08:46:02.837Z,6340.00
2019-04-30T08:47:02.896Z,6552.00
2019-04-30T08:48:02.983Z,6684.00
2019-04-30T08:49:03.011Z,6584.00
2019-04-30T08:50:03.532Z,6568.00
2019-04-30T08:51:03.126Z,6628.00
2019-04-30T08:52:03.526Z,6700.00
2019-04-30T08:53:03.279Z,6780.00
2019-04-30T08:54:03.302Z,6636.00
2019-04-30T08:55:13.257Z,6604.00
2019-04-30T08:56:03.417Z,6636.00
2019-04-30T08:57:03.477Z,6756.00
2019-04-30T08:58:09.848Z,6864.00
2019-04-30T08:59:03.603Z,6824.00
2019-04-30T09:00:03.654Z,6792.00
2019-04-30T09:01:03.723Z,6728.00
2019-04-30T09:02:13.675Z,6596.00
2019-04-30T09:03:03.844Z,6460.00
2019-04-30T09:04:03.912Z,6420.00
2019-04-30T09:05:03.995Z,6584.00
2019-04-30T09:06:04.733Z,6820.00
2019-04-30T09:07:04.058Z,6944.00
2019-04-30T09:08:04.118Z,7068.00
2019-04-30T09:09:04.179Z,7060.00
2019-04-30T09:10:04.876Z,7092.00
2019-04-30T09:11:04.292Z,7060.00
2019-04-30T09:12:04.352Z,7100.00
2019-04-30T09:13:04.410Z,7184.00
2019-04-30T09:14:04.468Z,7316.00
2019-04-30T09:15:04.544Z,7364.00
2019-04-30T09:16:04.587Z,7368.00
2019-04-30T09:17:04.656Z,7328.00
2019-04-30T09:18:08.248Z,7200.00
2019-04-30T09:19:04.760Z,7204.00
2019-04-30T09:20:04.820Z,7208.00
2019-04-30T09:21:06.483Z,7268.00
2019-04-30T09:22:14.421Z,7368.00
2019-04-30T09:23:04.994Z,7748.00
2019-04-30T09:24:05.053Z,7916.00
2019-04-30T09:25:05.111Z,8280.00
2019-04-30T09:26:05.169Z,8272.00
2019-04-30T09:27:05.232Z,8064.00
2019-04-30T09:28:05.300Z,7936.00
2019-04-30T09:29:05.344Z,7816.00
2019-04-30T09:30:05.403Z,7732.00
2019-04-30T09:31:05.462Z,7604.00
2019-04-30T09:32:05.523Z,7472.00
2019-04-30T09:33:05.581Z,7340.00
2019-04-30T09:34:15.282Z,7264.00
2019-04-30T09:35:05.698Z,7236.00
2019-04-30T09:36:05.757Z,7368.00
2019-04-30T09:37:05.817Z,7556.00
2019-04-30T09:38:05.874Z,7700.00
2019-04-30T09:39:05.935Z,8028.00
2019-04-30T09:40:15.278Z,8352.00
2019-04-30T09:41:06.050Z,8556.00
2019-04-30T09:42:06.113Z,8660.00
2019-04-30T09:43:06.169Z,8716.00
2019-04-30T09:44:06.229Z,8888.00
2019-04-30T09:45:06.285Z,9032.00
2019-04-30T09:46:17.902Z,9144.00
2019-04-30T09:47:06.402Z,9004.00
2019-04-30T09:48:06.463Z,9164.00
2019-04-30T09:49:06.526Z,9168.00
2019-04-30T09:50:06.580Z,8928.00
2019-04-30T09:51:07.121Z,8796.00
2019-04-30T09:52:06.699Z,8672.00
2019-04-30T09:53:06.758Z,8564.00
2019-04-30T09:54:09.356Z,8528.00
2019-04-30T09:55:06.898Z,8300.00
2019-04-30T09:56:06.936Z,9428.00
2019-04-30T09:57:09.109Z,8736.00
2019-04-30T09:58:16.200Z,8684.00
2019-04-30T09:59:09.020Z,9520.00
2019-04-30T10:00:07.171Z,9492.00
2019-04-30T10:01:09.278Z,9952.00
2019-04-30T10:02:09.240Z,10480.00
2019-04-30T10:03:09.728Z,11184.00
2019-04-30T10:04:09.853Z,12756.00
2019-04-30T10:05:07.844Z,15056.00
2019-04-30T10:06:08.925Z,17044.00
2019-04-30T10:07:09.581Z,16744.00
2019-04-30T10:08:07.644Z,15312.00
2019-04-30T10:09:09.570Z,13476.00
2019-04-30T10:10:09.515Z,11500.00
2019-04-30T10:11:09.691Z,10592.00
2019-04-30T10:12:09.639Z,10232.00
2019-04-30T10:13:07.939Z,10188.00
2019-04-30T10:14:08.003Z,10220.00
2019-04-30T10:15:09.148Z,10572.00
2019-04-30T10:16:09.741Z,10956.00
2019-04-30T10:17:09.545Z,11200.00
2019-04-30T10:18:08.238Z,11764.00
2019-04-30T10:19:10.125Z,13356.00
2019-04-30T10:20:08.356Z,21664.00
2019-04-30T10:21:09.133Z,41952.00
2019-04-30T10:22:09.018Z,54592.00
2019-04-30T10:23:09.493Z,59200.00
2019-04-30T10:24:13.058Z,62176.00
2019-04-30T10:25:09.248Z,63744.00
2019-04-30T10:26:08.719Z,64512.00
2019-04-30T10:27:13.065Z,64992.00
2019-04-30T10:28:09.989Z,63648.00
2019-04-30T10:29:08.906Z,63744.00
2019-04-30T10:30:09.425Z,64352.00
2019-04-30T10:31:09.027Z,64416.00
2019-04-30T10:32:09.092Z,64608.00
2019-04-30T10:33:10.009Z,64480.00
2019-04-30T10:34:09.702Z,64960.00
2019-04-30T10:35:09.277Z,64992.00
2019-04-30T10:36:09.458Z,65792.00
2019-04-30T10:37:09.431Z,64352.00
2019-04-30T10:38:09.958Z,65280.00
2019-04-30T10:39:09.532Z,64992.00
2019-04-30T10:40:10.359Z,66624.00
2019-04-30T10:41:09.664Z,68032.00
2019-04-30T10:42:09.726Z,67424.00
2019-04-30T10:43:09.791Z,66400.00
2019-04-30T10:44:09.860Z,65440.00
2019-04-30T10:45:10.092Z,65056.00
2019-04-30T10:46:09.991Z,64576.00
2019-04-30T10:47:10.053Z,64256.00
2019-04-30T10:48:10.118Z,62496.00
2019-04-30T10:49:10.183Z,64640.00
2019-04-30T10:50:10.251Z,64288.00
2019-04-30T10:51:10.315Z,64096.00
2019-04-30T10:52:10.383Z,63584.00
2019-04-30T10:53:12.418Z,63008.00
2019-04-30T10:54:22.774Z,61600.00
2019-04-30T10:55:10.581Z,61952.00
2019-04-30T10:56:10.773Z,63008.00
2019-04-30T10:57:10.714Z,63040.00
2019-04-30T10:58:10.783Z,62528.00
2019-04-30T10:59:10.848Z,62784.00
2019-04-30T11:00:10.915Z,62912.00
2019-04-30T11:01:10.980Z,61600.00
2019-04-30T11:02:11.048Z,60768.00
2019-04-30T11:03:19.861Z,61280.00
2019-04-30T11:04:11.181Z,59904.00
2019-04-30T11:05:11.247Z,58784.00
2019-04-30T11:06:11.316Z,59584.00
2019-04-30T11:07:11.432Z,58432.00
2019-04-30T11:08:11.456Z,57248.00
2019-04-30T11:09:11.518Z,57312.00
2019-04-30T11:10:11.581Z,57600.00
2019-04-30T11:11:11.650Z,57152.00
2019-04-30T11:12:11.719Z,56544.00
2019-04-30T11:13:11.783Z,55328.00
2019-04-30T11:14:11.851Z,55264.00
2019-04-30T11:15:11.925Z,55168.00
2019-04-30T11:16:15.321Z,53824.00
2019-04-30T11:17:12.197Z,52640.00
2019-04-30T11:18:12.296Z,52800.00
2019-04-30T11:19:12.418Z,52832.00
2019-04-30T11:20:12.496Z,51008.00
2019-04-30T11:21:12.497Z,49728.00
2019-04-30T11:22:12.584Z,48256.00
2019-04-30T11:23:14.721Z,49184.00
2019-04-30T11:24:12.657Z,47104.00
2019-04-30T11:25:12.631Z,46304.00
2019-04-30T11:26:13.150Z,45408.00
2019-04-30T11:27:13.375Z,47296.00
2019-04-30T11:28:13.378Z,46272.00
2019-04-30T11:29:13.019Z,45856.00
2019-04-30T11:30:23.333Z,45152.00
2019-04-30T11:31:13.154Z,44224.00
2019-04-30T11:32:13.267Z,44320.00
2019-04-30T11:33:13.376Z,43904.00
2019-04-30T11:34:13.207Z,43680.00
2019-04-30T11:35:13.262Z,42624.00
2019-04-30T11:36:13.330Z,42464.00
2019-04-30T11:37:13.396Z,42688.00
2019-04-30T11:38:13.464Z,42496.00
2019-04-30T11:39:13.531Z,41760.00
2019-04-30T11:40:13.598Z,41440.00
2019-04-30T11:41:13.668Z,41536.00
2019-04-30T11:42:13.733Z,41600.00
2019-04-30T11:43:13.801Z,41056.00
2019-04-30T11:44:13.869Z,40320.00
2019-04-30T11:45:13.935Z,40256.00
2019-04-30T11:46:14.003Z,40896.00
2019-04-30T11:47:14.073Z,40352.00
2019-04-30T11:48:14.139Z,40256.00
2019-04-30T11:49:14.208Z,39776.00
2019-04-30T11:50:14.277Z,39520.00
2019-04-30T11:51:14.343Z,39872.00
2019-04-30T11:52:14.411Z,40384.00
2019-04-30T11:53:25.245Z,40896.00
2019-04-30T11:54:14.545Z,39552.00
2019-04-30T11:55:14.615Z,40288.00
2019-04-30T11:56:14.687Z,41600.00
2019-04-30T11:57:14.746Z,41632.00
2019-04-30T11:58:21.661Z,42368.00
2019-04-30T11:59:14.884Z,42336.00
2019-04-30T12:00:14.953Z,43584.00
2019-04-30T12:01:15.019Z,45440.00
2019-04-30T12:02:15.087Z,46560.00
2019-04-30T12:03:15.155Z,47488.00
2019-04-30T12:04:15.224Z,49952.00
2019-04-30T12:05:16.068Z,52672.00
2019-04-30T12:06:15.361Z,55872.00
2019-04-30T12:07:15.427Z,59616.00
2019-04-30T12:08:15.495Z,64000.00
2019-04-30T12:09:15.567Z,69440.00
2019-04-30T12:10:15.632Z,72736.00
2019-04-30T12:11:15.699Z,77248.00
2019-04-30T12:12:15.767Z,81376.00
2019-04-30T12:13:15.835Z,83008.00
2019-04-30T12:14:15.904Z,84832.00
2019-04-30T12:15:15.973Z,89440.00
2019-04-30T12:16:16.040Z,92704.00
2019-04-30T12:17:16.109Z,94080.00
2019-04-30T12:18:16.176Z,93792.00
2019-04-30T12:19:16.244Z,94688.00
2019-04-30T12:20:16.312Z,93248.00
2019-04-30T12:21:16.379Z,92032.00
2019-04-30T12:22:20.049Z,90496.00
2019-04-30T12:23:16.517Z,89856.00
2019-04-30T12:24:16.585Z,90400.00